Smithfield, OH (43948)

7:45 AM EDT on October 23, 2014 (GMT -0400)
OHDOT 42-Jefferson County Garage | Change Station
CLOSE
Current Station
Personal Weather Station
Location: Steubenville, OH
Elevation: 1123 ft
Nearby Weather Stations

Elev 1123 ft 40.38 °N, 80.72 °W | Updated 35 minutes ago

Overcast
Overcast
45 °F
Feels Like 45 °F
N
2
Wind Variable Wind from WNW
Gusts 3.0 mph

Today
High -- | Low -- °F
--% Chance of Precip.
Yesterday
High -- | Low -- °F
Precip. -- in
7:42 AM 6:31 PM
Waning Crescent, 0% visible
Pressure 30.19 in
Visibility 8.0 miles
Clouds Mostly Cloudy 600 ft
Overcast 1200 ft
Windchill 45 °F
Dew Point 42 °F
Humidity 89%
Rainfall -999.00 in
Snow Depth Not available.
UV 0 out of 12
Pollen 1.10 out of 12
Air Quality Not available.
Flu Activity Sporadic
METAR KHLG 231053Z 28005KT 8SM BKN006 OVC012 07/06 A3017 RMK AO2 SLP223 T00670056

More Conditions Fewer Conditions

Pressure 30.19 in
Visibility 8.0 miles
Clouds Mostly Cloudy 600 ft
Overcast 1200 ft
Windchill 45 °F
Dew Point 42 °F
Humidity 89%
Rainfall -999.00 in
Snow Depth Not available.
UV 0 out of 12
Pollen 1.10 out of 12
Air Quality Not available.
Flu Activity Sporadic
METAR KHLG 231053Z 28005KT 8SM BKN006 OVC012 07/06 A3017 RMK AO2 SLP223 T00670056

More Conditions Fewer Conditions

10-Day Weather Forecast

Almanac

Astronomy

Oct. 23, 2014 Rise Set
Actual Time 7:42 AM EDT 6:31 PM EDT
Civil Twilight 7:14 AM EDT 6:59 PM EDT
Nautical Twilight 6:43 AM EDT 7:31 PM EDT
Astronomical Twilight 6:11 AM EDT 8:02 PM EDT
Moon 7:20 AM EDT 6:32 PM EDT
Length of Visible Light 11h 44m
Length of Day
10h 49m
Tomorrow will be 2m 28s shorter.
Waning Crescent, 0% of the Moon is Illuminated
Today
Waning Crescent
Oct 23
New
Oct 30
First Quarter
Nov 6
Full
Nov 14
Last Quarter

Today's Extremes

State Highs State Lows

Community

WunderPhotos

Upload Photos

1,764,209 photos uploaded!

Nearby

Snow Depth

Station Depth Elevation
No new snow has been reported.

Earthquake Activity

City Distance Mag. Time & Date
No recent earthquake activity has been reported nearby.
Minimum magnitude displayed is 2.5.

Coastal Water Temperatures

Place Temperature
No Stations Reporting

Nearby Weather Stations